Time;durP1;ratioP1;P1;durP2;ratioP2;P2;SDS_P1;SDS_P2;PMS_P1;PMS_P2;Temp;Humidity;BMP_temperature;BMP_pressure;BME280_temperature;BME280_humidity;BME280_pressure;Samples;Min_cycle;Max_cycle;Signal;HPM_P1;HPM_P2
2023/03/20 00:00:30;;;;;;;12.70;4.15;;;22.70;99.90;;;;;;5054436;28;20538;-74
2023/03/20 00:03:01;;;;;;;16.85;4.07;;;22.60;99.90;;;;;;5054689;28;20671;-76
2023/03/20 00:05:36;;;;;;;16.75;3.95;;;22.70;99.90;;;;;;5057499;28;20193;-77
2023/03/20 00:08:07;;;;;;;16.85;4.07;;;22.60;99.90;;;;;;5066661;28;20590;-77
2023/03/20 00:10:42;;;;;;;18.23;4.00;;;22.60;99.90;;;;;;5058134;28;20204;-77
2023/03/20 00:13:21;;;;;;;13.20;3.15;;;22.60;99.90;;;;;;5071086;28;20193;-77
2023/03/20 00:15:52;;;;;;;21.45;3.83;;;22.50;99.90;;;;;;5053919;28;20566;-76
2023/03/20 00:18:25;;;;;;;16.17;3.53;;;22.50;99.90;;;;;;5053450;28;20358;-77
2023/03/20 00:20:56;;;;;;;20.48;4.10;;;22.30;99.90;;;;;;5062445;28;20232;-78
2023/03/20 00:23:27;;;;;;;17.55;3.30;;;22.10;99.90;;;;;;5069398;28;20193;-79
2023/03/20 00:25:59;;;;;;;17.15;3.35;;;22.00;99.90;;;;;;5055411;28;20592;-78
2023/03/20 00:28:45;;;;;;;13.95;3.30;;;21.90;99.90;;;;;;5067172;28;20580;-78
2023/03/20 00:31:25;;;;;;;18.25;3.42;;;21.80;99.90;;;;;;5074392;28;20648;-79
2023/03/20 00:33:58;;;;;;;14.98;2.90;;;21.80;99.90;;;;;;5057659;28;20224;-79
2023/03/20 00:36:29;;;;;;;14.70;2.92;;;21.70;99.90;;;;;;5054527;28;20259;-80
2023/03/20 00:39:00;;;;;;;13.57;3.17;;;21.60;99.90;;;;;;5060908;28;20232;-80
2023/03/20 00:41:35;;;;;;;16.27;3.05;;;21.60;99.90;;;;;;5065721;28;20223;-77
2023/03/20 00:44:22;;;;;;;17.00;3.10;;;21.60;99.90;;;;;;5055751;28;20189;-78
2023/03/20 00:46:56;;;;;;;15.05;2.65;;;21.40;99.90;;;;;;5062675;28;20192;-78
2023/03/20 00:49:29;;;;;;;17.40;2.72;;;21.30;99.90;;;;;;5060637;28;20204;-78
2023/03/20 00:52:01;;;;;;;14.45;2.95;;;21.30;99.90;;;;;;5056829;28;20193;-79
2023/03/20 00:54:33;;;;;;;15.05;2.67;;;21.20;99.90;;;;;;5058849;28;20208;-77
2023/03/20 00:57:09;;;;;;;18.20;2.75;;;21.20;99.90;;;;;;5061568;28;20668;-79
2023/03/20 00:59:56;;;;;;;14.70;3.05;;;21.20;99.90;;;;;;5060608;28;20193;-78
2023/03/20 01:02:30;;;;;;;13.73;2.80;;;21.20;99.90;;;;;;5057151;28;20204;-79
2023/03/20 01:05:06;;;;;;;14.93;2.60;;;21.30;99.90;;;;;;5062454;28;20193;-79
2023/03/20 01:07:38;;;;;;;9.82;2.28;;;21.20;99.90;;;;;;5056778;28;20212;-78
2023/03/20 01:10:10;;;;;;;14.98;2.78;;;21.20;99.90;;;;;;5059353;28;20640;-78
2023/03/20 01:12:43;;;;;;;15.27;2.25;;;21.10;99.90;;;;;;5052867;28;20251;-81
2023/03/20 01:15:27;;;;;;;18.70;2.83;;;21.10;99.90;;;;;;5053855;28;20194;-79
2023/03/20 01:17:58;;;;;;;12.25;2.03;;;21.00;99.90;;;;;;5053983;28;20573;-78
2023/03/20 01:20:33;;;;;;;13.98;2.45;;;21.00;99.90;;;;;;5053530;28;20200;-78
2023/03/20 01:23:04;;;;;;;9.63;2.10;;;21.00;99.90;;;;;;5062221;28;20230;-78
2023/03/20 01:25:35;;;;;;;13.05;2.28;;;21.00;99.90;;;;;;5065818;28;20227;-79
2023/03/20 01:28:15;;;;;;;12.25;2.20;;;21.00;99.90;;;;;;5060616;28;20208;-79
2023/03/20 01:30:49;;;;;;;14.25;2.10;;;21.00;99.90;;;;;;5053522;28;20197;-79
2023/03/20 01:33:21;;;;;;;16.00;2.35;;;21.10;99.90;;;;;;5053567;28;20648;-79
2023/03/20 01:35:53;;;;;;;14.45;2.13;;;21.20;99.90;;;;;;5054262;28;20190;-78
2023/03/20 01:38:25;;;;;;;13.68;1.83;;;21.20;99.90;;;;;;5059295;28;20237;-76
2023/03/20 01:40:59;;;;;;;11.80;2.00;;;21.30;99.90;;;;;;5060576;28;20205;-78
2023/03/20 01:43:31;;;;;;;17.58;2.25;;;21.30;99.90;;;;;;5052871;28;20567;-79
2023/03/20 01:46:16;;;;;;;18.42;2.10;;;21.30;99.90;;;;;;5054328;28;20276;-79
2023/03/20 01:49:09;;;;;;;15.80;2.40;;;21.40;99.90;;;;;;5052755;28;20298;-78
2023/03/20 01:51:40;;;;;;;7.75;1.88;;;21.70;99.90;;;;;;5067258;28;20274;-72
2023/03/20 01:54:16;;;;;;;9.50;2.00;;;21.70;99.90;;;;;;5071827;28;20200;-78
2023/03/20 01:56:52;;;;;;;14.18;2.20;;;21.80;99.90;;;;;;5062479;28;20581;-78
2023/03/20 01:59:26;;;;;;;11.98;1.90;;;21.80;99.90;;;;;;5073042;28;20226;-78
2023/03/20 02:02:01;;;;;;;15.00;2.13;;;21.90;99.90;;;;;;5059331;28;20192;-76
2023/03/20 02:04:36;;;;;;;12.77;2.40;;;22.00;99.90;;;;;;5063161;28;20674;-76
2023/03/20 02:07:08;;;;;;;13.82;1.88;;;21.90;99.90;;;;;;5057559;28;20557;-78
2023/03/20 02:09:43;;;;;;;12.43;1.80;;;22.00;99.90;;;;;;5064104;28;20220;-75
2023/03/20 02:12:14;;;;;;;12.50;2.45;;;22.00;99.90;;;;;;5065301;28;20535;-78
2023/03/20 02:14:47;;;;;;;17.33;2.28;;;22.00;99.90;;;;;;5056025;28;20202;-74
2023/03/20 02:17:20;;;;;;;12.88;1.88;;;22.00;99.90;;;;;;5052182;28;20206;-80
2023/03/20 02:20:00;;;;;;;11.10;1.67;;;22.10;99.90;;;;;;5056019;28;20205;-79
2023/03/20 02:23:07;;;;;;;8.25;1.70;;;22.20;99.90;;;;;;5056922;28;20200;-79
2023/03/20 02:26:12;;;;;;;11.43;1.77;;;22.20;99.90;;;;;;5056570;28;20215;-78
2023/03/20 02:29:20;;;;;;;16.23;1.92;;;22.30;99.90;;;;;;5070213;28;20212;-80
2023/03/20 02:32:20;;;;;;;12.05;1.58;;;22.40;99.90;;;;;;5037972;28;20649;-76
2023/03/20 02:35:26;;;;;;;13.50;2.08;;;22.40;99.90;;;;;;5064924;28;20551;-76
2023/03/20 02:38:21;;;;;;;14.15;2.15;;;22.40;99.90;;;;;;5026317;28;20241;-79
2023/03/20 02:40:59;;;;;;;11.85;1.63;;;22.50;99.90;;;;;;5065134;28;20205;-78
2023/03/20 02:43:39;;;;;;;9.07;1.90;;;22.40;99.90;;;;;;5076713;28;20193;-76
2023/03/20 02:46:17;;;;;;;16.80;2.20;;;22.30;99.90;;;;;;5076435;28;20192;-77
2023/03/20 02:48:55;;;;;;;11.32;1.98;;;22.30;99.90;;;;;;5074768;28;20230;-76
2023/03/20 02:51:34;;;;;;;12.07;1.98;;;22.30;99.90;;;;;;5060791;28;20860;-78
2023/03/20 02:54:12;;;;;;;12.38;1.95;;;22.40;99.90;;;;;;5065071;28;20200;-78
2023/03/20 02:56:56;;;;;;;10.57;2.00;;;22.40;99.90;;;;;;5057609;28;20200;-78
2023/03/20 02:59:37;;;;;;;14.75;1.85;;;22.40;99.90;;;;;;5055478;28;20228;-83
2023/03/20 03:02:11;;;;;;;13.50;1.80;;;22.40;99.90;;;;;;5059172;28;20251;-78
2023/03/20 03:04:57;;;;;;;8.93;1.70;;;22.40;99.90;;;;;;5073894;28;20554;-77
2023/03/20 03:07:32;;;;;;;6.80;1.02;;;22.40;99.90;;;;;;5075733;28;20193;-75
2023/03/20 03:10:11;;;;;;;11.30;2.05;;;22.40;99.90;;;;;;5072967;28;20224;-79
2023/03/20 03:12:45;;;;;;;15.18;2.17;;;22.40;99.90;;;;;;5065144;28;20648;-77
2023/03/20 03:15:22;;;;;;;7.93;1.65;;;22.40;99.90;;;;;;5055907;28;20189;-79
2023/03/20 03:17:54;;;;;;;10.07;1.73;;;22.40;99.90;;;;;;5054822;28;20659;-79
2023/03/20 03:20:29;;;;;;;8.95;1.88;;;22.40;99.90;;;;;;5075799;28;20287;-77
2023/03/20 03:23:00;;;;;;;13.27;2.40;;;22.40;99.90;;;;;;5075608;28;20675;-78
2023/03/20 03:25:38;;;;;;;10.15;2.00;;;22.40;99.90;;;;;;5075655;28;20188;-78
2023/03/20 03:28:16;;;;;;;9.13;2.05;;;22.40;99.90;;;;;;5071170;28;20217;-78
2023/03/20 03:30:48;;;;;;;15.90;2.50;;;22.40;99.90;;;;;;5055044;28;20197;-74
2023/03/20 03:33:23;;;;;;;12.05;2.17;;;22.40;99.90;;;;;;5056930;28;20316;-78
2023/03/20 03:36:01;;;;;;;10.85;1.67;;;22.30;99.90;;;;;;5063926;28;20227;-76
2023/03/20 03:38:37;;;;;;;11.32;2.10;;;22.30;99.90;;;;;;5055217;28;20233;-76
2023/03/20 03:41:26;;;;;;;9.80;1.77;;;22.30;99.90;;;;;;5056599;28;20208;-77
2023/03/20 03:44:05;;;;;;;8.38;1.83;;;22.20;99.90;;;;;;5065696;28;20197;-76
2023/03/20 03:46:43;;;;;;;7.20;1.33;;;22.20;99.90;;;;;;5062473;28;20198;-79
2023/03/20 03:49:18;;;;;;;10.85;1.90;;;22.20;99.90;;;;;;5054427;28;20217;-79
2023/03/20 03:51:54;;;;;;;13.38;1.88;;;22.20;99.90;;;;;;5054534;28;20208;-74
2023/03/20 03:54:27;;;;;;;9.88;1.88;;;22.10;99.90;;;;;;5055297;28;20197;-75
2023/03/20 03:57:01;;;;;;;20.73;2.45;;;22.10;99.90;;;;;;5054896;28;20200;-77
2023/03/20 03:59:37;;;;;;;14.82;1.77;;;22.10;99.90;;;;;;5055756;28;20383;-79
2023/03/20 04:02:10;;;;;;;13.65;2.00;;;22.10;99.90;;;;;;5055339;28;20201;-78
2023/03/20 04:04:45;;;;;;;11.30;1.92;;;22.10;99.90;;;;;;5054794;28;20186;-78
2023/03/20 04:07:17;;;;;;;18.65;2.33;;;22.10;99.90;;;;;;5057904;28;20200;-78
2023/03/20 04:09:48;;;;;;;11.75;1.83;;;22.00;99.90;;;;;;5064368;28;20237;-78
2023/03/20 04:12:42;;;;;;;15.65;2.30;;;22.00;99.90;;;;;;5074802;28;20193;-79
2023/03/20 04:15:14;;;;;;;11.80;1.95;;;21.90;99.90;;;;;;5055098;28;20201;-78
2023/03/20 04:17:45;;;;;;;11.13;2.00;;;21.90;99.90;;;;;;5068391;28;20200;-78
2023/03/20 04:20:17;;;;;;;11.10;1.80;;;21.90;99.90;;;;;;5054483;28;20194;-79
2023/03/20 04:22:48;;;;;;;10.88;1.70;;;21.90;99.90;;;;;;5054322;28;20668;-76
2023/03/20 04:25:21;;;;;;;10.77;1.73;;;21.90;99.90;;;;;;5054511;28;20216;-79
2023/03/20 04:27:57;;;;;;;14.50;1.85;;;21.90;99.90;;;;;;5066296;28;20197;-80
2023/03/20 04:30:28;;;;;;;10.13;1.60;;;21.90;99.90;;;;;;5069673;28;20227;-79
2023/03/20 04:32:59;;;;;;;12.23;1.75;;;21.90;99.90;;;;;;5074241;28;20197;-79
2023/03/20 04:35:30;;;;;;;6.45;1.33;;;22.00;99.90;;;;;;5070124;28;20691;-76
2023/03/20 04:38:01;;;;;;;11.15;2.03;;;22.00;99.90;;;;;;5055025;28;20569;-80
2023/03/20 04:40:33;;;;;;;10.13;1.50;;;21.90;99.90;;;;;;5063422;28;20232;-78
2023/03/20 04:43:06;;;;;;;11.25;1.30;;;21.90;99.90;;;;;;5054087;28;20190;-79
2023/03/20 04:45:37;;;;;;;8.52;1.63;;;21.90;99.90;;;;;;5068453;28;20201;-79
2023/03/20 04:48:08;;;;;;;10.50;1.58;;;21.90;99.90;;;;;;5065340;28;20691;-77
2023/03/20 04:50:39;;;;;;;8.05;1.58;;;21.90;99.90;;;;;;5054127;28;20658;-77
2023/03/20 04:53:10;;;;;;;9.65;1.42;;;21.90;99.90;;;;;;5053607;28;20201;-79
2023/03/20 04:55:41;;;;;;;9.18;1.40;;;21.90;99.90;;;;;;5053203;28;20190;-78
2023/03/20 04:58:14;;;;;;;7.13;1.10;;;22.00;99.90;;;;;;5053547;28;20190;-77
2023/03/20 05:00:46;;;;;;;10.38;1.42;;;22.00;99.90;;;;;;5053449;28;20558;-78
2023/03/20 05:03:17;;;;;;;7.55;1.40;;;22.10;99.90;;;;;;5059554;28;20192;-76
2023/03/20 05:05:48;;;;;;;9.63;1.77;;;22.20;99.90;;;;;;5071955;28;20189;-77
2023/03/20 05:08:19;;;;;;;15.05;1.83;;;22.20;99.90;;;;;;5060266;28;20205;-78
2023/03/20 05:10:50;;;;;;;10.27;1.75;;;22.20;99.90;;;;;;5073643;28;20197;-76
2023/03/20 05:13:23;;;;;;;6.68;1.65;;;22.10;99.90;;;;;;5059151;28;20193;-76
2023/03/20 05:15:55;;;;;;;7.72;1.50;;;22.10;99.90;;;;;;5060049;28;20632;-76
2023/03/20 05:18:26;;;;;;;10.18;1.65;;;22.10;99.90;;;;;;5070328;28;20228;-77
2023/03/20 05:20:57;;;;;;;13.52;1.95;;;22.10;99.90;;;;;;5064106;28;20204;-75
2023/03/20 05:23:28;;;;;;;11.10;1.75;;;22.00;99.90;;;;;;5061845;28;20197;-77
2023/03/20 05:25:59;;;;;;;13.10;1.70;;;22.00;99.90;;;;;;5068839;28;20573;-77
2023/03/20 05:28:32;;;;;;;11.98;1.73;;;22.00;99.90;;;;;;5053721;28;20201;-77
2023/03/20 05:31:03;;;;;;;9.63;1.73;;;21.90;99.90;;;;;;5053212;28;20208;-77
2023/03/20 05:33:35;;;;;;;10.82;1.88;;;21.80;99.90;;;;;;5053323;28;20194;-77
2023/03/20 05:36:06;;;;;;;11.63;2.00;;;21.70;99.90;;;;;;5056656;28;20205;-77
2023/03/20 05:38:37;;;;;;;9.43;1.88;;;21.70;99.90;;;;;;5061111;28;20236;-76
2023/03/20 05:41:08;;;;;;;12.70;1.98;;;21.60;99.90;;;;;;5070845;28;20193;-78
2023/03/20 05:43:41;;;;;;;11.40;1.60;;;21.60;99.90;;;;;;5073431;28;20575;-77
2023/03/20 05:46:12;;;;;;;12.70;1.98;;;21.60;99.90;;;;;;5067164;28;20220;-78
2023/03/20 05:48:43;;;;;;;8.00;1.70;;;21.60;99.90;;;;;;5053225;28;20221;-75
2023/03/20 05:51:14;;;;;;;8.63;1.30;;;21.60;99.90;;;;;;5060364;28;20198;-78
2023/03/20 05:53:45;;;;;;;13.75;1.60;;;21.60;99.90;;;;;;5053431;28;20197;-77
2023/03/20 05:56:16;;;;;;;8.73;1.20;;;21.60;99.90;;;;;;5053006;28;20190;-78
2023/03/20 05:58:50;;;;;;;9.70;1.55;;;21.70;99.90;;;;;;5052625;28;20205;-80
2023/03/20 06:01:22;;;;;;;8.80;1.30;;;21.70;99.90;;;;;;5052869;28;20285;-75
2023/03/20 06:03:54;;;;;;;8.02;1.38;;;21.70;99.90;;;;;;5052721;28;20190;-78
2023/03/20 06:06:27;;;;;;;8.15;1.60;;;21.70;99.90;;;;;;5063490;28;20194;-79
2023/03/20 06:08:58;;;;;;;8.30;1.60;;;21.80;99.90;;;;;;5052708;28;20217;-76
2023/03/20 06:11:29;;;;;;;11.30;1.90;;;21.80;99.90;;;;;;5053053;28;20194;-77
2023/03/20 06:14:02;;;;;;;10.18;1.60;;;21.90;99.90;;;;;;5056651;28;20201;-78
2023/03/20 06:16:33;;;;;;;10.70;1.75;;;21.90;99.90;;;;;;5070454;28;20189;-77
2023/03/20 06:19:04;;;;;;;10.07;1.73;;;21.90;99.90;;;;;;5058561;28;20197;-76
2023/03/20 06:21:35;;;;;;;12.85;1.70;;;21.90;99.90;;;;;;5053063;28;20197;-79
2023/03/20 06:24:06;;;;;;;10.70;1.90;;;21.90;99.90;;;;;;5055553;28;20229;-79
2023/03/20 06:26:37;;;;;;;9.00;1.80;;;21.90;99.90;;;;;;5052982;28;20558;-78
2023/03/20 06:29:10;;;;;;;6.68;1.65;;;22.00;99.90;;;;;;5054075;28;20213;-77
2023/03/20 06:31:42;;;;;;;13.25;2.10;;;22.00;99.90;;;;;;5053549;28;20316;-77
2023/03/20 06:34:13;;;;;;;11.52;1.58;;;22.00;99.90;;;;;;5067060;28;20201;-78
2023/03/20 06:36:44;;;;;;;8.02;1.50;;;22.10;99.90;;;;;;5072817;28;20200;-77
2023/03/20 06:39:15;;;;;;;10.18;1.70;;;22.10;99.90;;;;;;5054090;28;20721;-78
2023/03/20 06:41:46;;;;;;;10.75;1.83;;;22.10;99.90;;;;;;5052776;28;20665;-77
2023/03/20 06:44:19;;;;;;;11.38;1.80;;;22.10;99.90;;;;;;5056241;28;20563;-77
2023/03/20 06:46:50;;;;;;;8.43;1.45;;;22.10;99.90;;;;;;5052633;28;20578;-77
2023/03/20 06:49:21;;;;;;;11.02;1.67;;;22.10;99.90;;;;;;5052740;28;20221;-77
2023/03/20 06:51:52;;;;;;;7.20;1.45;;;22.10;99.90;;;;;;5052719;28;20208;-77
2023/03/20 06:54:23;;;;;;;7.97;1.70;;;22.10;99.90;;;;;;5052663;28;20190;-76
2023/03/20 06:56:54;;;;;;;10.15;1.85;;;22.10;99.90;;;;;;5053850;28;20198;-77
2023/03/20 06:59:28;;;;;;;9.98;1.70;;;22.00;99.90;;;;;;5052891;28;20666;-78
2023/03/20 07:01:59;;;;;;;9.27;1.83;;;22.00;99.90;;;;;;5059824;28;20369;-77
2023/03/20 07:04:30;;;;;;;8.95;1.70;;;22.00;99.90;;;;;;5056313;28;20268;-77
2023/03/20 07:07:01;;;;;;;9.90;1.45;;;22.00;99.90;;;;;;5053331;28;20201;-76
2023/03/20 07:09:33;;;;;;;7.68;1.35;;;22.00;99.90;;;;;;5068592;28;21001;-77
2023/03/20 07:12:04;;;;;;;10.85;1.60;;;22.00;99.90;;;;;;5065287;28;20208;-77
2023/03/20 07:14:37;;;;;;;11.98;1.75;;;22.00;99.90;;;;;;5064029;28;20205;-77
2023/03/20 07:17:08;;;;;;;12.77;1.80;;;22.00;99.90;;;;;;5060565;28;20208;-78
2023/03/20 07:19:40;;;;;;;7.90;1.60;;;22.00;99.90;;;;;;5055603;28;20198;-77
2023/03/20 07:22:20;;;;;;;13.70;1.90;;;22.00;99.90;;;;;;5064776;28;20208;-76
2023/03/20 07:24:51;;;;;;;8.52;1.60;;;22.00;99.90;;;;;;5065518;28;20201;-77
2023/03/20 07:27:22;;;;;;;12.65;2.05;;;22.00;99.90;;;;;;5060506;28;20667;-77
2023/03/20 07:29:55;;;;;;;7.85;1.58;;;22.00;99.90;;;;;;5059441;28;20225;-77
2023/03/20 07:32:26;;;;;;;11.82;1.83;;;22.00;99.90;;;;;;5069154;28;20262;-77
2023/03/20 07:34:57;;;;;;;10.68;1.83;;;22.00;99.90;;;;;;5075883;28;20613;-77
2023/03/20 07:37:28;;;;;;;10.68;1.55;;;22.00;99.90;;;;;;5067148;28;20194;-76
2023/03/20 07:40:00;;;;;;;11.35;2.08;;;22.00;99.90;;;;;;5056542;28;20288;-76
2023/03/20 07:42:31;;;;;;;10.00;1.77;;;22.00;99.90;;;;;;5056226;28;20201;-77
2023/03/20 07:45:04;;;;;;;14.55;1.90;;;22.00;99.90;;;;;;5056516;28;20212;-76
2023/03/20 07:47:35;;;;;;;11.10;1.60;;;22.00;99.90;;;;;;5059900;28;20196;-78
2023/03/20 07:50:06;;;;;;;10.32;1.73;;;22.00;99.90;;;;;;5071598;28;20580;-78
2023/03/20 07:52:37;;;;;;;8.18;1.48;;;22.00;99.90;;;;;;5055364;28;20194;-78
2023/03/20 07:55:09;;;;;;;14.45;2.00;;;22.00;99.90;;;;;;5056336;28;20212;-77
2023/03/20 07:57:40;;;;;;;10.07;1.73;;;21.90;99.90;;;;;;5063184;28;20216;-77
2023/03/20 08:00:14;;;;;;;9.50;1.70;;;21.90;99.90;;;;;;5065749;28;20201;-77
2023/03/20 08:02:45;;;;;;;15.88;2.25;;;21.90;99.90;;;;;;5058989;28;20201;-75
2023/03/20 08:05:16;;;;;;;9.23;2.13;;;21.90;99.90;;;;;;5068888;28;20193;-75
2023/03/20 08:07:48;;;;;;;10.90;1.52;;;21.90;99.90;;;;;;5060367;28;20659;-77
2023/03/20 08:10:19;;;;;;;11.63;1.67;;;21.90;99.90;;;;;;5062650;28;20675;-76
2023/03/20 08:12:50;;;;;;;7.88;1.33;;;21.90;99.90;;;;;;5070249;28;20197;-77
2023/03/20 08:15:23;;;;;;;11.27;1.98;;;21.90;99.90;;;;;;5053375;28;20201;-75
2023/03/20 08:17:56;;;;;;;10.07;1.90;;;21.90;99.90;;;;;;5066059;28;20213;-76
2023/03/20 08:20:27;;;;;;;14.13;1.60;;;21.90;99.90;;;;;;5058805;28;20194;-77
2023/03/20 08:22:58;;;;;;;13.98;2.25;;;21.90;99.90;;;;;;5064471;28;20221;-77
2023/03/20 08:25:33;;;;;;;10.40;1.85;;;21.90;99.90;;;;;;5068275;28;20220;-76
2023/03/20 08:28:04;;;;;;;7.85;1.50;;;21.90;99.90;;;;;;5064009;28;20197;-77
2023/03/20 08:30:37;;;;;;;9.73;1.80;;;21.90;99.90;;;;;;5062054;28;20227;-78
2023/03/20 08:33:08;;;;;;;14.98;2.25;;;21.90;99.90;;;;;;5056472;28;20219;-79
2023/03/20 08:35:41;;;;;;;11.60;2.05;;;21.90;99.90;;;;;;5057687;28;20202;-78
2023/03/20 08:38:15;;;;;;;7.70;1.65;;;21.90;99.90;;;;;;5066608;28;20233;-80
2023/03/20 08:40:46;;;;;;;10.27;1.80;;;21.90;99.90;;;;;;5057978;28;20197;-78
2023/03/20 08:43:17;;;;;;;12.10;1.80;;;21.90;99.90;;;;;;5070960;28;20683;-79
2023/03/20 08:45:53;;;;;;;10.65;1.85;;;21.90;99.90;;;;;;5060307;28;20200;-79
2023/03/20 08:48:25;;;;;;;10.27;1.70;;;21.90;99.90;;;;;;5071567;28;20193;-78
2023/03/20 08:50:56;;;;;;;7.53;1.60;;;21.80;99.90;;;;;;5067884;28;20216;-77
2023/03/20 08:53:27;;;;;;;8.90;1.70;;;21.80;99.90;;;;;;5064631;28;20189;-77
2023/03/20 08:55:58;;;;;;;10.52;1.65;;;21.80;99.90;;;;;;5061218;28;20201;-78
2023/03/20 08:58:29;;;;;;;14.57;2.17;;;21.80;99.90;;;;;;5064699;28;20275;-78
2023/03/20 09:01:07;;;;;;;10.52;2.10;;;21.70;99.90;;;;;;5061685;28;20201;-78
2023/03/20 09:03:38;;;;;;;9.27;1.80;;;21.70;99.90;;;;;;5068511;28;20318;-79
2023/03/20 09:06:11;;;;;;;8.70;1.42;;;21.70;99.90;;;;;;5058443;28;20216;-77
2023/03/20 09:08:42;;;;;;;10.82;1.73;;;21.60;99.90;;;;;;5060112;28;20201;-78
2023/03/20 09:11:13;;;;;;;10.35;1.65;;;21.60;99.90;;;;;;5061937;28;20215;-78
2023/03/20 09:13:44;;;;;;;10.63;2.00;;;21.60;99.90;;;;;;5071517;28;20189;-78
2023/03/20 09:16:17;;;;;;;7.47;1.85;;;21.60;99.90;;;;;;5068228;28;20189;-77
2023/03/20 09:18:49;;;;;;;15.10;2.47;;;21.60;99.90;;;;;;5071518;28;20204;-78
2023/03/20 09:21:20;;;;;;;14.07;1.90;;;21.60;99.90;;;;;;5073587;28;20193;-77
2023/03/20 09:23:51;;;;;;;11.25;2.03;;;21.60;99.90;;;;;;5066237;28;20204;-78
2023/03/20 09:26:22;;;;;;;18.73;2.50;;;21.70;99.90;;;;;;5065082;28;20193;-76
2023/03/20 09:28:53;;;;;;;18.38;2.33;;;21.70;99.90;;;;;;5067437;28;20208;-75
2023/03/20 09:31:26;;;;;;;10.93;1.95;;;21.70;99.90;;;;;;5064495;28;20213;-78
2023/03/20 09:33:57;;;;;;;9.77;1.50;;;21.60;99.90;;;;;;5067151;28;20668;-78
2023/03/20 09:36:28;;;;;;;24.17;2.75;;;21.60;99.90;;;;;;5069291;28;20644;-77
2023/03/20 09:38:59;;;;;;;13.85;2.30;;;21.60;99.90;;;;;;5072633;28;20255;-77
2023/03/20 09:41:35;;;;;;;12.57;2.33;;;21.50;99.90;;;;;;5057872;28;20682;-77
2023/03/20 09:44:17;;;;;;;12.63;2.35;;;21.50;99.90;;;;;;5056739;28;20246;-78
2023/03/20 09:47:07;;;;;;;12.57;2.00;;;21.40;99.90;;;;;;5059067;28;20281;-78
2023/03/20 09:49:49;;;;;;;13.48;2.45;;;21.40;99.90;;;;;;5052488;28;20201;-77
2023/03/20 09:52:29;;;;;;;9.77;1.63;;;21.30;99.90;;;;;;5059428;28;20210;-77
2023/03/20 09:55:08;;;;;;;12.48;2.00;;;21.30;99.90;;;;;;5054441;28;20197;-78
2023/03/20 09:57:43;;;;;;;9.00;1.90;;;21.30;99.90;;;;;;5054566;28;20234;-78
2023/03/20 10:00:18;;;;;;;13.68;2.00;;;21.20;99.90;;;;;;5058375;28;20207;-78
2023/03/20 10:02:55;;;;;;;13.95;2.13;;;21.20;99.90;;;;;;5070134;28;20196;-78
2023/03/20 10:05:30;;;;;;;10.80;2.00;;;21.20;99.90;;;;;;5058849;28;20197;-78
2023/03/20 10:08:03;;;;;;;10.63;1.73;;;21.20;99.90;;;;;;5052889;28;20540;-78
2023/03/20 10:10:46;;;;;;;12.90;2.00;;;21.10;99.90;;;;;;5052680;28;20210;-78
2023/03/20 10:13:37;;;;;;;9.88;1.98;;;21.10;99.90;;;;;;5052745;28;20649;-77
2023/03/20 10:16:15;;;;;;;9.73;2.25;;;21.20;99.90;;;;;;5053278;28;20205;-78
2023/03/20 10:18:58;;;;;;;7.47;1.33;;;21.10;99.90;;;;;;5052996;28;20556;-78
2023/03/20 10:21:38;;;;;;;10.10;1.50;;;21.20;99.90;;;;;;5052472;28;20224;-78
2023/03/20 10:24:18;;;;;;;10.18;1.85;;;21.20;99.90;;;;;;5052884;28;20204;-78
2023/03/20 10:26:52;;;;;;;14.32;1.90;;;21.20;99.90;;;;;;5056223;28;20208;-77
2023/03/20 10:29:33;;;;;;;8.15;1.30;;;21.20;99.90;;;;;;5052716;28;20212;-77
2023/03/20 10:32:13;;;;;;;14.20;1.70;;;21.20;99.90;;;;;;5051539;28;20688;-80
2023/03/20 10:34:59;;;;;;;11.88;1.83;;;21.20;99.90;;;;;;5066959;28;20197;-78
2023/03/20 10:37:44;;;;;;;11.45;1.90;;;21.10;99.90;;;;;;5061161;28;20194;-78
2023/03/20 10:40:26;;;;;;;13.57;2.13;;;21.10;99.90;;;;;;5068043;28;20537;-77
2023/03/20 10:43:01;;;;;;;14.73;2.35;;;21.10;99.90;;;;;;5068862;28;20671;-77
2023/03/20 10:45:42;;;;;;;16.27;2.03;;;21.10;99.90;;;;;;5069810;28;20720;-78
2023/03/20 10:48:23;;;;;;;14.85;2.38;;;21.10;99.90;;;;;;5075151;28;20201;-75
2023/03/20 10:50:58;;;;;;;16.60;2.20;;;21.00;99.90;;;;;;5062799;28;20699;-78
2023/03/20 10:53:34;;;;;;;18.55;2.35;;;21.00;99.90;;;;;;5059865;28;20193;-78
2023/03/20 10:56:12;;;;;;;12.90;2.28;;;21.00;99.90;;;;;;5061333;28;20207;-77
2023/03/20 10:58:44;;;;;;;11.75;1.77;;;21.00;99.90;;;;;;5073316;28;20954;-78
2023/03/20 11:01:16;;;;;;;16.67;2.67;;;20.90;99.90;;;;;;5060951;28;20204;-77
2023/03/20 11:03:47;;;;;;;17.25;2.58;;;20.90;99.90;;;;;;5066489;28;20188;-77
2023/03/20 11:06:25;;;;;;;19.42;2.95;;;20.90;99.90;;;;;;5073832;28;20193;-78
2023/03/20 11:08:57;;;;;;;16.80;2.17;;;20.90;99.90;;;;;;5072397;28;20216;-77
2023/03/20 11:11:30;;;;;;;12.75;2.10;;;20.90;99.90;;;;;;5056722;28;20209;-77
2023/03/20 11:14:11;;;;;;;14.30;2.10;;;20.90;99.90;;;;;;5057816;28;20209;-77
2023/03/20 11:16:42;;;;;;;10.60;1.60;;;20.90;99.90;;;;;;5067322;28;20192;-78
2023/03/20 11:19:16;;;;;;;11.82;1.77;;;20.80;99.90;;;;;;5064310;28;20212;-77
2023/03/20 11:21:52;;;;;;;12.07;1.77;;;20.80;99.90;;;;;;5059232;28;20577;-77
2023/03/20 11:24:41;;;;;;;11.93;2.10;;;20.80;99.90;;;;;;5062483;28;20572;-77
2023/03/20 11:27:14;;;;;;;12.35;1.92;;;20.80;99.90;;;;;;5070561;28;20636;-78
2023/03/20 11:29:47;;;;;;;15.27;2.28;;;20.80;99.90;;;;;;5068962;28;20198;-77
2023/03/20 11:32:28;;;;;;;14.93;1.80;;;20.70;99.90;;;;;;5072466;28;20210;-77
2023/03/20 11:35:11;;;;;;;19.30;2.10;;;20.70;99.90;;;;;;5069931;28;20196;-77
2023/03/20 11:37:51;;;;;;;14.57;2.15;;;20.70;99.90;;;;;;5075261;28;20208;-78
2023/03/20 11:40:27;;;;;;;18.58;2.58;;;20.60;99.90;;;;;;5072429;28;20652;-77
2023/03/20 11:43:04;;;;;;;13.80;1.92;;;20.60;99.90;;;;;;5069300;28;20203;-79
2023/03/20 11:45:39;;;;;;;13.40;2.25;;;20.60;99.90;;;;;;5070749;28;20258;-79
2023/03/20 11:48:19;;;;;;;17.17;2.30;;;20.50;99.90;;;;;;5075357;28;20184;-81
2023/03/20 11:50:53;;;;;;;16.92;2.30;;;20.50;99.90;;;;;;5068919;28;20587;-80
2023/03/20 11:53:30;;;;;;;21.70;2.80;;;20.40;99.90;;;;;;5056694;28;20192;-81
2023/03/20 11:56:09;;;;;;;19.05;2.53;;;20.30;99.90;;;;;;5054830;28;20197;-80
2023/03/20 11:58:49;;;;;;;16.45;2.97;;;20.30;99.90;;;;;;5055045;28;20239;-79
2023/03/20 12:01:22;;;;;;;16.45;2.35;;;20.20;99.90;;;;;;5059801;28;20196;-80
2023/03/20 12:04:00;;;;;;;15.68;2.25;;;20.10;99.90;;;;;;5072591;28;20197;-79
2023/03/20 12:06:43;;;;;;;15.25;2.47;;;20.10;99.90;;;;;;5065137;28;20197;-79
2023/03/20 12:09:27;;;;;;;16.80;2.58;;;20.10;99.90;;;;;;5063398;28;20200;-80
2023/03/20 12:12:01;;;;;;;18.65;2.83;;;20.00;99.90;;;;;;5054641;28;20217;-80
2023/03/20 12:14:40;;;;;;;12.82;2.30;;;20.00;99.90;;;;;;5074448;28;20750;-80
2023/03/20 12:17:34;;;;;;;11.75;2.15;;;19.90;99.90;;;;;;5070882;28;20197;-79
2023/03/20 12:20:16;;;;;;;21.65;2.90;;;19.90;99.90;;;;;;5059813;28;20668;-81
2023/03/20 12:22:55;;;;;;;19.42;2.65;;;19.80;99.90;;;;;;5054654;28;20697;-81
2023/03/20 12:25:31;;;;;;;16.23;2.25;;;19.80;99.90;;;;;;5067150;28;20193;-79
2023/03/20 12:28:09;;;;;;;12.73;2.17;;;19.80;99.90;;;;;;5063008;28;20564;-81
2023/03/20 12:30:53;;;;;;;17.25;2.55;;;19.80;99.90;;;;;;5067487;28;20196;-77
2023/03/20 12:33:36;;;;;;;18.45;2.47;;;19.70;99.90;;;;;;5074318;28;20207;-78
2023/03/20 12:36:10;;;;;;;14.27;2.13;;;19.70;99.90;;;;;;5066479;28;20204;-76
2023/03/20 12:38:43;;;;;;;15.65;2.50;;;19.60;99.90;;;;;;5073627;28;20231;-76
2023/03/20 12:41:26;;;;;;;16.55;2.20;;;19.60;99.90;;;;;;5054970;28;20202;-76
2023/03/20 12:44:21;;;;;;;11.82;2.13;;;19.50;99.90;;;;;;5062225;28;20203;-75
2023/03/20 12:47:04;;;;;;;17.52;2.10;;;19.40;99.90;;;;;;5062610;28;20560;-75
2023/03/20 12:49:46;;;;;;;15.27;2.10;;;19.40;99.90;;;;;;5064544;28;20201;-78
2023/03/20 12:52:26;;;;;;;15.30;2.15;;;19.30;99.90;;;;;;5057828;28;20578;-76
2023/03/20 12:55:29;;;;;;;16.27;1.90;;;19.20;99.90;;;;;;5073433;28;20640;-76
2023/03/20 12:58:16;;;;;;;11.43;1.90;;;19.20;99.90;;;;;;5073870;28;20196;-75
2023/03/20 13:00:53;;;;;;;10.80;1.73;;;19.20;99.90;;;;;;5064308;28;20204;-77
2023/03/20 13:03:43;;;;;;;11.82;1.90;;;19.20;99.90;;;;;;5063356;28;20208;-75
2023/03/20 13:06:19;;;;;;;15.15;2.28;;;19.10;99.90;;;;;;5053894;28;20232;-75
2023/03/20 13:09:12;;;;;;;19.00;2.30;;;19.10;99.90;;;;;;5064173;28;20203;-75
2023/03/20 13:11:49;;;;;;;14.95;1.88;;;19.00;99.90;;;;;;5046075;28;20251;-76
2023/03/20 13:14:29;;;;;;;16.98;2.10;;;19.00;99.90;;;;;;5053440;28;20197;-75
2023/03/20 13:17:07;;;;;;;13.82;2.33;;;18.90;99.90;;;;;;5055413;28;20208;-76
2023/03/20 13:19:43;;;;;;;13.00;2.28;;;18.80;99.90;;;;;;5057118;28;20219;-75